Time,TemperatureF,DewpointF,PressureIn,WindDirection,WindDirectionDegrees,WindSpeedMPH,WindSpeedGustMPH,Humidity,HourlyPrecipIn,Conditions,Clouds,dailyrainin,SoftwareType,DateUTC
2013-10-03 00:07:00,61.6,60.0,30.10,ENE,67,0.0,0.0,93,0.00,,,0.00,weatherlink.com 1.10,2013-10-03 04:07:00,
2013-10-03 00:22:00,61.4,59.0,30.10,ENE,67,0.0,0.0,93,0.00,,,0.00,weatherlink.com 1.10,2013-10-03 04:22:00,
2013-10-03 00:36:00,61.2,59.0,30.10,ENE,67,0.0,0.0,93,0.00,,,0.00,weatherlink.com 1.10,2013-10-03 04:36:00,
2013-10-03 00:51:00,61.1,59.0,30.10,ENE,67,0.0,0.0,93,0.00,,,0.00,weatherlink.com 1.10,2013-10-03 04:51:00,
2013-10-03 01:06:00,61.0,59.0,30.10,ENE,67,0.0,0.0,93,0.00,,,0.00,weatherlink.com 1.10,2013-10-03 05:06:00,
2013-10-03 01:21:00,60.8,59.0,30.10,ENE,67,0.0,0.0,93,0.00,,,0.00,weatherlink.com 1.10,2013-10-03 05:21:00,
2013-10-03 01:36:00,60.7,59.0,30.10,ENE,67,0.0,0.0,93,0.00,,,0.00,weatherlink.com 1.10,2013-10-03 05:36:00,
2013-10-03 01:51:00,60.6,59.0,30.10,ENE,67,0.0,0.0,93,0.00,,,0.00,weatherlink.com 1.10,2013-10-03 05:51:00,
2013-10-03 02:06:00,60.6,59.0,30.10,ENE,67,0.0,0.0,94,0.00,,,0.00,weatherlink.com 1.10,2013-10-03 06:06:00,
2013-10-03 02:21:00,60.3,59.0,30.10,ENE,67,0.0,0.0,94,0.00,,,0.00,weatherlink.com 1.10,2013-10-03 06:21:00,
2013-10-03 02:36:00,60.2,59.0,30.09,ENE,67,0.0,0.0,94,0.00,,,0.00,weatherlink.com 1.10,2013-10-03 06:36:00,
2013-10-03 02:51:00,60.0,58.0,30.09,ENE,67,0.0,0.0,94,0.00,,,0.00,weatherlink.com 1.10,2013-10-03 06:51:00,
2013-10-03 03:06:00,60.0,58.0,30.09,ENE,67,0.0,0.0,94,0.00,,,0.00,weatherlink.com 1.10,2013-10-03 07:06:00,
2013-10-03 03:21:00,59.8,58.0,30.09,ENE,67,0.0,0.0,94,0.00,,,0.00,weatherlink.com 1.10,2013-10-03 07:21:00,
2013-10-03 03:36:00,59.4,58.0,30.09,ENE,67,0.0,0.0,94,0.00,,,0.00,weatherlink.com 1.10,2013-10-03 07:36:00,
2013-10-03 03:51:00,59.4,58.0,30.09,ENE,67,0.0,0.0,94,0.00,,,0.00,weatherlink.com 1.10,2013-10-03 07:51:00,
2013-10-03 04:06:00,59.3,58.0,30.09,ENE,67,0.0,0.0,94,0.00,,,0.00,weatherlink.com 1.10,2013-10-03 08:06:00,
2013-10-03 04:21:00,59.0,57.0,30.09,ENE,67,0.0,0.0,94,0.00,,,0.00,weatherlink.com 1.10,2013-10-03 08:21:00,
2013-10-03 04:36:00,58.8,57.0,30.10,ENE,67,0.0,0.0,94,0.00,,,0.00,weatherlink.com 1.10,2013-10-03 08:36:00,
2013-10-03 04:51:00,58.8,57.0,30.09,ENE,67,0.0,0.0,94,0.00,,,0.00,weatherlink.com 1.10,2013-10-03 08:51:00,
2013-10-03 05:06:00,58.5,57.0,30.09,ENE,67,0.0,0.0,94,0.00,,,0.00,weatherlink.com 1.10,2013-10-03 09:06:00,
2013-10-03 05:21:00,58.2,57.0,30.10,ENE,67,0.0,0.0,94,0.00,,,0.00,weatherlink.com 1.10,2013-10-03 09:21:00,
2013-10-03 05:36:00,58.3,57.0,30.09,ENE,67,0.0,0.0,94,0.00,,,0.00,weatherlink.com 1.10,2013-10-03 09:36:00,
2013-10-03 05:51:00,57.9,56.0,30.10,ENE,67,0.0,0.0,94,0.00,,,0.00,weatherlink.com 1.10,2013-10-03 09:51:00,
2013-10-03 06:06:00,58.0,56.0,30.10,ENE,67,0.0,0.0,94,0.00,,,0.00,weatherlink.com 1.10,2013-10-03 10:06:00,
2013-10-03 06:21:00,58.1,56.0,30.11,ENE,67,0.0,0.0,94,0.00,,,0.00,weatherlink.com 1.10,2013-10-03 10:21:00,
2013-10-03 06:36:00,58.3,57.0,30.11,ENE,67,0.0,0.0,95,0.00,,,0.00,weatherlink.com 1.10,2013-10-03 10:36:00,
2013-10-03 06:51:00,58.3,57.0,30.11,ENE,67,0.0,0.0,95,0.00,,,0.00,weatherlink.com 1.10,2013-10-03 10:51:00,
2013-10-03 07:06:00,58.4,57.0,30.11,ENE,67,0.0,0.0,95,0.00,,,0.00,weatherlink.com 1.10,2013-10-03 11:06:00,
2013-10-03 07:21:00,58.5,57.0,30.11,ENE,67,0.0,0.0,95,0.00,,,0.00,weatherlink.com 1.10,2013-10-03 11:21:00,
2013-10-03 07:36:00,58.7,57.0,30.11,ENE,67,0.0,0.0,95,0.00,,,0.00,weatherlink.com 1.10,2013-10-03 11:36:00,
2013-10-03 07:51:00,59.1,58.0,30.11,ENE,67,0.0,0.0,95,0.00,,,0.00,weatherlink.com 1.10,2013-10-03 11:51:00,
2013-10-03 08:06:00,59.6,58.0,30.11,ENE,67,0.0,0.0,95,0.00,,,0.00,weatherlink.com 1.10,2013-10-03 12:06:00,
2013-10-03 08:21:00,60.8,59.0,30.12,ENE,67,0.0,0.0,95,0.00,,,0.00,weatherlink.com 1.10,2013-10-03 12:21:00,
2013-10-03 08:36:00,61.6,60.0,30.12,ENE,67,0.0,0.0,95,0.00,,,0.00,weatherlink.com 1.10,2013-10-03 12:36:00,
2013-10-03 08:51:00,63.3,62.0,30.13,ENE,67,0.0,0.0,95,0.00,,,0.00,weatherlink.com 1.10,2013-10-03 12:51:00,
2013-10-03 09:07:00,67.0,66.0,30.13,ENE,67,0.0,0.0,95,0.00,,,0.00,weatherlink.com 1.10,2013-10-03 13:07:00,
2013-10-03 09:22:00,69.7,68.0,30.12,ENE,67,0.0,0.0,95,0.00,,,0.00,weatherlink.com 1.10,2013-10-03 13:22:00,
2013-10-03 09:37:00,71.6,70.0,30.12,ENE,67,0.0,0.0,93,0.00,,,0.00,weatherlink.com 1.10,2013-10-03 13:37:00,
2013-10-03 09:52:00,74.3,70.0,30.13,ENE,67,0.0,0.0,85,0.00,,,0.00,weatherlink.com 1.10,2013-10-03 13:52:00,
2013-10-03 10:07:00,77.6,70.0,30.13,ENE,67,0.0,0.0,78,0.00,,,0.00,weatherlink.com 1.10,2013-10-03 14:07:00,
2013-10-03 10:22:00,80.8,71.0,30.13,ENE,67,0.0,0.0,72,0.00,,,0.00,weatherlink.com 1.10,2013-10-03 14:22:00,
2013-10-03 10:37:00,81.5,70.0,30.13,ENE,67,0.0,0.0,67,0.00,,,0.00,weatherlink.com 1.10,2013-10-03 14:37:00,
2013-10-03 10:52:00,80.8,70.0,30.13,ENE,67,0.0,0.0,70,0.00,,,0.00,weatherlink.com 1.10,2013-10-03 14:52:00,
2013-10-03 11:07:00,80.1,70.0,30.13,SW,221,0.0,0.0,71,0.00,,,0.00,weatherlink.com 1.10,2013-10-03 15:07:00,
2013-10-03 11:22:00,81.4,68.0,30.13,SE,125,0.0,1.0,64,0.00,,,0.00,weatherlink.com 1.10,2013-10-03 15:22:00,
2013-10-03 11:37:00,83.6,68.0,30.12,SE,133,0.0,0.0,59,0.00,,,0.00,weatherlink.com 1.10,2013-10-03 15:37:00,
2013-10-03 11:52:00,83.7,68.0,30.12,SW,225,0.0,3.0,60,0.00,,,0.00,weatherlink.com 1.10,2013-10-03 15:52:00,
2013-10-03 12:07:00,84.6,68.0,30.12,SW,225,1.0,2.0,57,0.00,,,0.00,weatherlink.com 1.10,2013-10-03 16:07:00,
2013-10-03 12:22:00,84.4,65.0,30.11,SSE,156,0.0,4.0,53,0.00,,,0.00,weatherlink.com 1.10,2013-10-03 16:22:00,
2013-10-03 12:37:00,84.5,64.0,30.11,SSE,167,0.0,2.0,51,0.00,,,0.00,weatherlink.com 1.10,2013-10-03 16:37:00,
2013-10-03 12:52:00,84.7,64.0,30.10,ESE,120,1.0,5.0,50,0.00,,,0.00,weatherlink.com 1.10,2013-10-03 16:52:00,
2013-10-03 13:07:00,85.7,64.0,30.10,WSW,248,1.0,3.0,49,0.00,,,0.00,weatherlink.com 1.10,2013-10-03 17:07:00,
2013-10-03 13:22:00,85.2,64.0,30.09,NNW,343,0.0,4.0,50,0.00,,,0.00,weatherlink.com 1.10,2013-10-03 17:22:00,
2013-10-03 13:37:00,85.1,64.0,30.09,NW,315,1.0,5.0,50,0.00,,,0.00,weatherlink.com 1.10,2013-10-03 17:37:00,
2013-10-03 13:52:00,85.6,66.0,30.08,East,95,1.0,3.0,52,0.00,,,0.00,weatherlink.com 1.10,2013-10-03 17:52:00,
2013-10-03 14:07:00,85.6,64.0,30.08,SE,141,2.0,3.0,49,0.00,,,0.00,weatherlink.com 1.10,2013-10-03 18:07:00,
2013-10-03 14:22:00,85.7,65.0,30.08,NW,321,0.0,5.0,50,0.00,,,0.00,weatherlink.com 1.10,2013-10-03 18:22:00,
2013-10-03 14:37:00,85.6,65.0,30.08,SSW,212,1.0,6.0,50,0.00,,,0.00,weatherlink.com 1.10,2013-10-03 18:37:00,
2013-10-03 14:52:00,85.1,65.0,30.08,SSW,204,1.0,3.0,51,0.00,,,0.00,weatherlink.com 1.10,2013-10-03 18:52:00,
2013-10-03 15:07:00,84.8,66.0,30.07,SSE,150,0.0,4.0,54,0.00,,,0.00,weatherlink.com 1.10,2013-10-03 19:07:00,
2013-10-03 15:22:00,85.2,66.0,30.07,South,180,1.0,5.0,53,0.00,,,0.00,weatherlink.com 1.10,2013-10-03 19:22:00,
2013-10-03 15:37:00,84.6,66.0,30.07,SSE,148,4.0,8.0,53,0.00,,,0.00,weatherlink.com 1.10,2013-10-03 19:37:00,
2013-10-03 15:52:00,84.0,66.0,30.06,SSW,195,2.0,9.0,55,0.00,,,0.00,weatherlink.com 1.10,2013-10-03 19:52:00,
2013-10-03 16:07:00,83.4,64.0,30.06,ESE,119,0.0,5.0,53,0.00,,,0.00,weatherlink.com 1.10,2013-10-03 20:07:00,
2013-10-03 16:22:00,83.3,65.0,30.06,SE,146,0.0,3.0,54,0.00,,,0.00,weatherlink.com 1.10,2013-10-03 20:22:00,
2013-10-03 16:37:00,82.6,65.0,30.06,ESE,105,0.0,3.0,56,0.00,,,0.00,weatherlink.com 1.10,2013-10-03 20:37:00,
2013-10-03 16:53:00,82.4,65.0,30.05,WSW,248,0.0,5.0,55,0.00,,,0.00,weatherlink.com 1.10,2013-10-03 20:53:00,
2013-10-03 17:08:00,82.1,64.0,30.06,SE,137,0.0,5.0,55,0.00,,,0.00,weatherlink.com 1.10,2013-10-03 21:08:00,
2013-10-03 17:23:00,82.2,65.0,30.06,East,89,0.0,3.0,57,0.00,,,0.00,weatherlink.com 1.10,2013-10-03 21:23:00,
2013-10-03 17:38:00,81.4,65.0,30.06,South,177,1.0,3.0,57,0.00,,,0.00,weatherlink.com 1.10,2013-10-03 21:38:00,
2013-10-03 17:53:00,80.7,65.0,30.06,SSE,165,1.0,2.0,60,0.00,,,0.00,weatherlink.com 1.10,2013-10-03 21:53:00,
2013-10-03 18:08:00,79.9,67.0,30.07,SSW,193,0.0,0.0,64,0.00,,,0.00,weatherlink.com 1.10,2013-10-03 22:08:00,
2013-10-03 18:23:00,78.8,66.0,30.07,SSE,158,0.0,1.0,66,0.00,,,0.00,weatherlink.com 1.10,2013-10-03 22:23:00,
2013-10-03 18:38:00,77.0,68.0,30.07,SSE,158,0.0,0.0,73,0.00,,,0.00,weatherlink.com 1.10,2013-10-03 22:38:00,
2013-10-03 18:53:00,74.9,68.0,30.07,SSE,158,0.0,0.0,78,0.00,,,0.00,weatherlink.com 1.10,2013-10-03 22:53:00,
2013-10-03 19:08:00,73.2,67.0,30.07,SSE,158,0.0,0.0,81,0.00,,,0.00,weatherlink.com 1.10,2013-10-03 23:08:00,
2013-10-03 19:23:00,71.9,67.0,30.07,SSE,158,0.0,0.0,83,0.00,,,0.00,weatherlink.com 1.10,2013-10-03 23:23:00,
2013-10-03 19:38:00,70.9,66.0,30.08,SSE,158,0.0,0.0,85,0.00,,,0.00,weatherlink.com 1.10,2013-10-03 23:38:00,
2013-10-03 19:53:00,70.1,66.0,30.08,SSE,158,0.0,0.0,86,0.00,,,0.00,weatherlink.com 1.10,2013-10-03 23:53:00,
2013-10-03 20:08:00,69.4,65.0,30.08,SSE,158,0.0,0.0,87,0.00,,,0.00,weatherlink.com 1.10,2013-10-04 00:08:00,
2013-10-03 20:23:00,68.8,65.0,30.08,SSE,158,0.0,0.0,88,0.00,,,0.00,weatherlink.com 1.10,2013-10-04 00:23:00,
2013-10-03 20:38:00,68.3,65.0,30.08,SSE,158,0.0,0.0,88,0.00,,,0.00,weatherlink.com 1.10,2013-10-04 00:38:00,
2013-10-03 20:53:00,67.8,65.0,30.09,SSE,158,0.0,0.0,89,0.00,,,0.00,weatherlink.com 1.10,2013-10-04 00:53:00,
2013-10-03 21:08:00,67.4,65.0,30.09,SSE,158,0.0,0.0,90,0.00,,,0.00,weatherlink.com 1.10,2013-10-04 01:08:00,
2013-10-03 21:23:00,67.2,64.0,30.09,SSE,158,0.0,0.0,90,0.00,,,0.00,weatherlink.com 1.10,2013-10-04 01:23:00,
2013-10-03 21:38:00,67.0,64.0,30.09,SSE,158,0.0,0.0,90,0.00,,,0.00,weatherlink.com 1.10,2013-10-04 01:38:00,
2013-10-03 21:53:00,67.0,64.0,30.10,SSE,158,0.0,0.0,90,0.00,,,0.00,weatherlink.com 1.10,2013-10-04 01:53:00,
2013-10-03 22:08:00,67.8,64.0,30.10,SSE,152,0.0,1.0,88,0.00,,,0.00,weatherlink.com 1.10,2013-10-04 02:08:00,
2013-10-03 22:23:00,69.6,65.0,30.10,SSE,153,0.0,2.0,84,0.00,,,0.00,weatherlink.com 1.10,2013-10-04 02:23:00,
2013-10-03 22:38:00,70.2,65.0,30.11,SE,138,0.0,1.0,83,0.00,,,0.00,weatherlink.com 1.10,2013-10-04 02:38:00,
2013-10-03 22:53:00,70.7,65.0,30.11,SE,134,0.0,3.0,82,0.00,,,0.00,weatherlink.com 1.10,2013-10-04 02:53:00,
2013-10-03 23:08:00,70.4,65.0,30.11,SSE,164,0.0,3.0,82,0.00,,,0.00,weatherlink.com 1.10,2013-10-04 03:08:00,
2013-10-03 23:23:00,69.8,64.0,30.11,South,190,0.0,1.0,83,0.00,,,0.00,weatherlink.com 1.10,2013-10-04 03:23:00,
2013-10-03 23:38:00,69.5,65.0,30.11,South,190,0.0,1.0,84,0.00,,,0.00,weatherlink.com 1.10,2013-10-04 03:38:00,
2013-10-03 23:53:00,69.4,64.0,30.11,WSW,238,0.0,2.0,84,0.00,,,0.00,weatherlink.com 1.10,2013-10-04 03:53:00,